Time;durP1;ratioP1;P1;durP2;ratioP2;P2;SDS_P1;SDS_P2;PMS_P1;PMS_P2;Temp;Humidity;BMP_temperature;BMP_pressure;BME280_temperature;BME280_humidity;BME280_pressure;Samples;Min_cycle;Max_cycle;Signal;HPM_P1;HPM_P2
2021/05/06 00:33:35;;;;;;;2.98;1.45;;;;;;;5.25;64.20;95849.13;1782499;79;21099;-82
2021/05/06 00:36:01;;;;;;;2.08;1.40;;;;;;;5.18;64.04;95844.28;1775708;79;21134;-82
2021/05/06 00:38:35;;;;;;;1.90;1.70;;;;;;;5.17;64.17;95854.27;1776269;79;21126;-82
2021/05/06 00:44:02;;;;;;;2.98;1.90;;;;;;;5.12;64.06;95856.84;1775331;79;21121;-82
2021/05/06 01:09:57;;;;;;;5.58;2.55;;;;;;;5.06;64.20;95864.42;1763958;79;21122;-82
2021/05/06 01:12:14;;;;;;;3.20;2.30;;;;;;;5.01;64.10;95877.75;1772166;79;21102;-82
2021/05/06 01:14:40;;;;;;;3.50;2.00;;;;;;;4.98;64.44;95872.13;1772800;79;21093;-82
2021/05/06 01:17:18;;;;;;;3.00;1.92;;;;;;;4.92;64.26;95876.63;1765616;80;21125;-82
2021/05/06 01:19:45;;;;;;;3.12;2.10;;;;;;;4.87;64.48;95868.56;1759554;80;21317;-82
2021/05/06 01:22:11;;;;;;;2.25;1.62;;;;;;;4.82;64.57;95871.62;1759035;80;21150;-82
2021/05/06 01:24:37;;;;;;;2.40;1.55;;;;;;;4.77;64.64;95875.96;1757177;80;21085;-82
2021/05/06 01:27:09;;;;;;;2.20;1.82;;;;;;;4.75;64.93;95874.03;1756133;80;21149;-82
2021/05/06 01:29:44;;;;;;;2.65;1.60;;;;;;;4.74;64.67;95876.28;1756249;80;21225;-82
2021/05/06 01:32:20;;;;;;;2.50;1.72;;;;;;;4.76;64.72;95875.64;1713339;82;21123;-82
2021/05/06 01:34:37;;;;;;;2.85;1.62;;;;;;;4.78;64.70;95876.77;1677665;83;21295;-82
2021/05/06 07:44:14;;;;;;;2.75;1.50;;;;;;;9.61;53.46;96030.72;1812203;77;22800;-81
2021/05/06 07:46:41;;;;;;;2.55;1.30;;;;;;;9.71;53.49;96033.49;1782140;78;21320;-81
2021/05/06 07:49:07;;;;;;;2.15;1.35;;;;;;;9.79;52.92;96035.98;1782703;78;21149;-81
2021/05/06 07:51:33;;;;;;;1.75;1.27;;;;;;;9.86;51.61;96035.05;1770500;80;21412;-82
2021/05/06 07:54:06;;;;;;;2.05;1.50;;;;;;;9.89;53.12;96040.35;1725722;81;21226;-82
2021/05/06 07:56:27;;;;;;;2.00;1.40;;;;;;;9.91;53.17;96037.87;1718414;81;21335;-81
2021/05/06 07:58:53;;;;;;;4.28;1.50;;;;;;;9.96;53.19;96038.64;1758812;80;21141;-81
2021/05/06 08:01:19;;;;;;;3.65;1.60;;;;;;;9.95;53.25;96038.33;1740249;80;21213;-81
2021/05/06 08:03:45;;;;;;;1.90;1.37;;;;;;;9.88;52.51;96032.26;1726841;81;21118;-82
2021/05/06 08:06:13;;;;;;;2.62;1.30;;;;;;;9.79;53.09;96035.98;1729676;81;21142;-82
2021/05/06 08:08:39;;;;;;;1.87;1.12;;;;;;;9.69;52.15;96024.59;1722829;81;21135;-81
2021/05/06 08:11:08;;;;;;;2.20;1.22;;;;;;;9.60;51.73;96030.91;1719058;81;21099;-80
2021/05/06 08:13:33;;;;;;;1.85;1.10;;;;;;;9.56;52.21;96035.63;1722931;81;21153;-79
2021/05/06 08:15:59;;;;;;;2.87;1.50;;;;;;;9.55;52.75;96031.94;1728481;81;21099;-81
2021/05/06 08:18:25;;;;;;;2.65;1.30;;;;;;;9.52;52.76;96034.41;1718813;81;21139;-81
2021/05/06 08:20:51;;;;;;;4.60;2.08;;;;;;;9.59;53.13;96033.16;1717269;81;21127;-80
2021/05/06 08:23:17;;;;;;;1.45;1.25;;;;;;;9.63;53.35;96039.13;1758760;80;21417;-80
2021/05/06 08:25:43;;;;;;;1.50;1.12;;;;;;;9.60;53.03;96036.90;1718072;81;21041;-81
2021/05/06 08:28:09;;;;;;;3.45;1.30;;;;;;;9.75;52.90;96029.53;1723144;81;21281;-81
2021/05/06 08:30:35;;;;;;;1.80;1.20;;;;;;;9.76;53.37;96030.67;1730411;81;21076;-80
2021/05/06 08:33:03;;;;;;;3.30;1.20;;;;;;;9.70;53.08;96031.39;1725347;81;21117;-80
2021/05/06 08:35:28;;;;;;;2.25;1.40;;;;;;;9.71;52.82;96036.09;1742173;80;21102;-80
2021/05/06 08:37:54;;;;;;;3.52;1.22;;;;;;;9.63;52.50;96035.23;1747872;80;21462;-80
2021/05/06 08:40:21;;;;;;;1.82;1.20;;;;;;;9.55;53.31;96039.22;1752925;80;21241;-80
2021/05/06 08:42:50;;;;;;;1.62;1.27;;;;;;;9.52;53.43;96037.00;1737240;80;21094;-80
2021/05/06 08:45:16;;;;;;;3.12;1.60;;;;;;;9.53;53.21;96033.91;1774638;79;21099;-80
2021/05/06 08:47:45;;;;;;;1.77;1.20;;;;;;;9.59;54.51;96030.57;1708410;82;21468;-80
2021/05/06 08:50:16;;;;;;;1.20;1.02;;;;;;;9.64;53.93;96029.55;1713688;82;21128;-82
2021/05/06 08:52:41;;;;;;;1.20;1.00;;;;;;;9.62;52.88;96030.23;1767051;79;21097;-82
2021/05/06 08:55:11;;;;;;;2.85;1.15;;;;;;;9.52;52.09;96030.52;1782495;79;21210;-81
2021/05/06 08:57:37;;;;;;;2.55;1.02;;;;;;;9.52;52.49;96029.22;1766142;79;21283;-80
2021/05/06 09:00:05;;;;;;;3.17;1.10;;;;;;;9.70;52.24;96018.91;1710378;82;21236;-81
2021/05/06 09:02:31;;;;;;;2.00;1.10;;;;;;;9.73;52.01;96023.23;1708476;82;21152;-81
2021/05/06 09:05:06;;;;;;;1.87;1.25;;;;;;;10.02;52.33;96015.82;1775732;79;21122;-80
2021/05/06 09:07:32;;;;;;;2.12;1.40;;;;;;;10.19;52.09;96028.84;1759999;79;21110;-81
2021/05/06 09:10:01;;;;;;;3.33;2.47;;;;;;;10.32;50.97;96016.99;1783393;79;21066;-81
2021/05/06 09:12:38;;;;;;;2.98;1.20;;;;;;;10.36;51.32;96032.00;1750439;79;22359;-81
2021/05/06 09:15:17;;;;;;;3.42;1.45;;;;;;;10.34;50.59;96023.59;1763777;79;21257;-80
2021/05/06 09:17:43;;;;;;;1.95;1.45;;;;;;;10.32;50.98;96024.28;1746650;79;21220;-80
2021/05/06 09:20:17;;;;;;;2.22;1.47;;;;;;;10.38;51.47;96022.72;1772362;79;21201;-80
2021/05/06 09:22:51;;;;;;;2.87;1.40;;;;;;;10.38;51.47;96022.72;1768890;79;21138;-81
2021/05/06 09:25:37;;;;;;;1.70;1.60;;;;;;;10.44;51.92;96029.28;1775029;79;21250;-81
2021/05/06 09:28:13;;;;;;;1.20;1.07;;;;;;;10.62;51.62;96021.50;1766854;79;21107;-81
2021/05/06 09:30:56;;;;;;;2.77;1.20;;;;;;;10.65;51.71;96019.81;1778242;79;21098;-81
2021/05/06 09:33:38;;;;;;;1.85;1.15;;;;;;;10.72;50.83;96018.05;1712527;82;21104;-80
2021/05/06 09:36:12;;;;;;;2.20;1.15;;;;;;;10.90;50.08;96008.44;1771365;79;21115;-81
2021/05/06 09:38:43;;;;;;;1.27;0.93;;;;;;;10.95;50.56;96009.48;1762427;79;21083;-81
2021/05/06 09:41:11;;;;;;;1.50;1.10;;;;;;;10.95;50.42;96018.59;1772033;79;21409;-80
2021/05/06 09:43:41;;;;;;;1.70;1.00;;;;;;;10.89;49.88;96012.03;1777770;79;21102;-81
2021/05/06 09:46:39;;;;;;;2.25;1.20;;;;;;;11.00;50.71;96008.91;1779387;80;21094;-81
2021/05/06 09:49:16;;;;;;;2.87;1.35;;;;;;;11.02;50.91;96022.51;1757091;80;21115;-80
2021/05/06 09:51:48;;;;;;;2.40;0.93;;;;;;;11.01;51.43;96016.50;1775655;79;21091;-80
2021/05/06 09:54:18;;;;;;;1.98;1.12;;;;;;;10.98;48.61;96012.20;1781665;79;21118;-80
2021/05/06 09:56:45;;;;;;;2.30;1.40;;;;;;;11.00;50.35;96003.70;1751307;80;21075;-80
2021/05/06 09:59:21;;;;;;;1.70;1.20;;;;;;;11.16;50.54;96011.17;1774770;79;21093;-82
2021/05/06 10:01:47;;;;;;;1.80;1.30;;;;;;;11.22;50.13;96018.19;1775007;79;21090;-82
2021/05/06 10:04:24;;;;;;;2.30;1.10;;;;;;;11.26;50.32;96012.13;1770061;79;21059;-82
2021/05/06 10:07:11;;;;;;;2.72;1.20;;;;;;;11.27;50.29;96012.42;1778446;79;21091;-80
2021/05/06 10:09:58;;;;;;;2.52;1.20;;;;;;;11.24;49.37;96016.72;1781852;79;21114;-80
2021/05/06 10:12:31;;;;;;;2.80;1.05;;;;;;;11.20;50.08;96012.88;1778074;80;21083;-80
2021/05/06 10:14:57;;;;;;;2.00;0.82;;;;;;;11.18;49.86;96018.78;1780910;79;21142;-80
2021/05/06 10:17:27;;;;;;;1.85;1.37;;;;;;;11.11;50.32;96012.27;1775691;79;21329;-82
2021/05/06 10:19:56;;;;;;;1.67;1.30;;;;;;;11.03;50.55;96020.21;1776778;79;21106;-81
2021/05/06 10:22:26;;;;;;;2.77;1.85;;;;;;;10.94;50.41;96016.18;1735134;81;21152;-81
2021/05/06 10:24:52;;;;;;;3.33;1.70;;;;;;;10.99;51.90;96011.20;1777571;79;21236;-79
2021/05/06 10:27:23;;;;;;;3.40;1.92;;;;;;;10.95;51.32;96020.39;1773631;79;21256;-81
2021/05/06 10:29:56;;;;;;;2.00;1.60;;;;;;;10.84;51.37;96021.72;1780276;79;21103;-81
2021/05/06 10:32:20;;;;;;;2.92;1.67;;;;;;;10.76;51.58;96023.98;1772842;79;21240;-81
2021/05/06 10:34:47;;;;;;;4.22;1.80;;;;;;;10.64;51.07;96015.11;1730114;80;21055;-81
2021/05/06 10:37:14;;;;;;;4.45;2.30;;;;;;;10.57;51.81;96024.64;1778375;79;21103;-81
2021/05/06 10:39:43;;;;;;;4.30;1.92;;;;;;;10.60;52.20;96025.59;1780987;79;21340;-81
2021/05/06 10:42:33;;;;;;;3.22;1.50;;;;;;;10.62;51.60;96024.90;1775599;79;21245;-81
2021/05/06 10:45:06;;;;;;;3.20;1.80;;;;;;;10.66;52.37;96026.12;1774389;79;21094;-81
2021/05/06 10:47:48;;;;;;;2.98;1.70;;;;;;;10.78;52.02;96019.89;1767534;79;21325;-80
2021/05/06 10:50:22;;;;;;;3.37;1.72;;;;;;;10.82;52.14;96019.81;1779161;79;21787;-81
2021/05/06 10:52:54;;;;;;;2.92;1.50;;;;;;;10.94;51.29;96010.48;1779274;79;21099;-81
2021/05/06 10:55:50;;;;;;;;;;;;;;;11.09;51.14;96009.06;1708035;82;21119;-80
2021/05/06 10:58:28;;;;;;;3.20;1.30;;;;;;;11.21;49.74;96018.38;1708297;82;20143;-81
2021/05/06 11:01:09;;;;;;;2.40;1.27;;;;;;;11.31;49.41;96012.33;1708707;82;21167;-81
2021/05/06 11:03:35;;;;;;;3.25;1.17;;;;;;;11.41;48.89;96001.88;1770993;79;21076;-82
2021/05/06 11:06:02;;;;;;;2.52;1.07;;;;;;;11.54;48.87;95995.08;1772707;79;21134;-81
2021/05/06 11:08:35;;;;;;;1.85;1.25;;;;;;;11.72;48.77;95996.64;1785049;79;21063;-81
2021/05/06 11:11:09;;;;;;;2.37;1.42;;;;;;;11.80;48.54;95988.66;1777961;79;21099;-80
2021/05/06 11:14:06;;;;;;;3.08;1.37;;;;;;;11.87;48.55;95998.56;1784688;79;21158;-80
2021/05/06 11:16:34;;;;;;;1.57;0.95;;;;;;;11.90;47.87;95986.48;1728833;81;21128;-80
2021/05/06 11:19:01;;;;;;;2.62;1.45;;;;;;;11.90;48.48;95976.56;1727202;81;21246;-80
2021/05/06 11:21:34;;;;;;;1.80;0.90;;;;;;;11.89;46.29;95980.97;1735380;79;21263;-80
2021/05/06 11:24:25;;;;;;;2.87;1.07;;;;;;;11.87;47.63;95975.14;1772983;79;21225;-80
2021/05/06 11:27:13;;;;;;;1.65;1.10;;;;;;;11.87;46.91;95979.05;1773328;79;21783;-81
2021/05/06 11:29:43;;;;;;;2.65;1.50;;;;;;;11.89;48.38;95973.16;1774876;79;21122;-81
2021/05/06 11:32:34;;;;;;;2.20;1.40;;;;;;;11.89;46.60;95971.06;1784161;79;21313;-81
2021/05/06 11:35:00;;;;;;;2.33;1.60;;;;;;;11.79;47.49;95971.94;1753767;79;21224;-82
2021/05/06 11:37:29;;;;;;;2.60;1.47;;;;;;;11.76;47.47;95967.11;1764173;79;21059;-82
2021/05/06 11:39:58;;;;;;;3.77;1.90;;;;;;;11.70;47.33;95973.39;1772564;79;21139;-82
2021/05/06 11:42:27;;;;;;;2.55;1.65;;;;;;;11.77;47.52;95960.90;1774716;79;21130;-81
2021/05/06 11:45:10;;;;;;;1.80;1.30;;;;;;;11.84;47.17;95965.62;1776716;79;21122;-81
2021/05/06 11:47:38;;;;;;;3.20;1.30;;;;;;;11.86;47.44;95963.13;1784011;79;21070;-81
2021/05/06 11:50:28;;;;;;;2.90;1.20;;;;;;;11.88;46.61;95958.55;1778575;79;21224;-81
2021/05/06 11:52:55;;;;;;;1.77;1.20;;;;;;;11.85;46.46;95965.92;1778786;79;21110;-81
2021/05/06 11:55:32;;;;;;;1.32;0.95;;;;;;;11.82;46.62;95963.23;1780715;79;21378;-81
2021/05/06 11:57:58;;;;;;;2.37;1.00;;;;;;;11.71;46.12;95958.10;1718129;82;21248;-81
2021/05/06 12:00:28;;;;;;;2.08;1.30;;;;;;;11.56;45.74;95961.38;1727679;81;21458;-81
2021/05/06 12:02:58;;;;;;;1.80;1.10;;;;;;;11.52;46.44;95952.84;1727222;81;21093;-80
2021/05/06 12:05:24;;;;;;;2.70;1.40;;;;;;;11.58;46.88;95945.06;1726544;81;21065;-81
2021/05/06 12:08:04;;;;;;;2.55;1.20;;;;;;;11.66;46.80;95939.66;1723000;81;21256;-80
2021/05/06 12:10:34;;;;;;;2.45;1.10;;;;;;;11.71;47.27;95941.19;1725495;81;21116;-80
2021/05/06 12:13:02;;;;;;;3.45;1.10;;;;;;;11.76;47.15;95943.69;1715717;82;21124;-79
2021/05/06 12:15:28;;;;;;;2.27;1.00;;;;;;;11.79;46.79;95938.11;1773628;79;21312;-79
2021/05/06 12:18:21;;;;;;;2.17;1.10;;;;;;;11.83;46.91;95932.29;1712574;82;21326;-79
2021/05/06 12:20:55;;;;;;;;;;;;;;;11.86;46.83;95932.39;1776406;79;21085;-79
2021/05/06 12:23:22;;;;;;;1.90;0.90;;;;;;;11.87;47.58;95930.08;1778590;79;20135;-79
2021/05/06 12:25:48;;;;;;;1.77;0.70;;;;;;;11.89;47.28;95927.60;1783200;79;21117;-80
2021/05/06 12:28:14;;;;;;;1.30;0.82;;;;;;;11.90;46.17;95921.89;1781581;79;21125;-79
2021/05/06 12:30:40;;;;;;;3.10;0.90;;;;;;;11.93;45.59;95915.78;1782051;79;21085;-79
2021/05/06 12:33:07;;;;;;;1.80;0.70;;;;;;;12.10;46.53;95919.27;1779717;79;21289;-79
2021/05/06 12:35:50;;;;;;;0.95;0.78;;;;;;;12.23;45.80;95917.45;1749826;80;21316;-79
2021/05/06 12:38:16;;;;;;;1.98;1.00;;;;;;;12.28;44.51;95916.84;1775380;79;21107;-79
2021/05/06 12:40:43;;;;;;;2.10;1.05;;;;;;;12.36;45.90;95920.52;1778980;80;21062;-79
2021/05/06 12:43:32;;;;;;;2.95;1.32;;;;;;;12.44;44.90;95911.70;1775705;79;21248;-78
2021/05/06 12:46:08;;;;;;;1.02;0.82;;;;;;;12.43;44.40;95910.89;1770067;80;21436;-81
2021/05/06 12:48:44;;;;;;;2.62;1.00;;;;;;;12.39;45.47;95910.21;1774292;79;21138;-80
2021/05/06 12:51:13;;;;;;;1.70;1.00;;;;;;;12.41;44.17;95903.79;1768276;79;21142;-79
2021/05/06 12:54:12;;;;;;;2.40;1.55;;;;;;;12.39;44.62;95909.71;1777032;79;21236;-79
2021/05/06 12:56:41;;;;;;;1.87;1.47;;;;;;;12.33;45.14;95923.03;1750480;80;21317;-78
2021/05/06 12:59:28;;;;;;;3.08;2.50;;;;;;;12.23;44.83;95907.54;1739783;80;21217;-79
2021/05/06 13:02:09;;;;;;;4.25;1.57;;;;;;;12.23;44.95;95897.92;1748294;80;21126;-80
2021/05/06 13:04:47;;;;;;;2.80;1.30;;;;;;;12.31;45.97;95895.08;1766310;79;21216;-80
2021/05/06 13:07:15;;;;;;;2.22;1.30;;;;;;;12.51;45.94;95903.34;1765783;79;21268;-81
2021/05/06 13:09:49;;;;;;;3.40;1.10;;;;;;;12.63;44.91;95899.91;1770527;79;21106;-81
2021/05/06 13:12:22;;;;;;;2.58;1.30;;;;;;;12.67;44.91;95895.07;1767644;79;21118;-82
2021/05/06 13:14:55;;;;;;;2.42;1.07;;;;;;;12.69;44.81;95893.09;1769379;79;21142;-79
2021/05/06 13:17:34;;;;;;;1.47;1.02;;;;;;;12.64;45.09;95903.31;1768055;79;21254;-79
2021/05/06 13:20:29;;;;;;;3.00;1.52;;;;;;;12.68;44.98;95898.48;1768543;79;21935;-80
2021/05/06 13:23:08;;;;;;;2.05;1.12;;;;;;;12.83;45.08;95902.42;1768863;79;21241;-80
2021/05/06 13:26:04;;;;;;;2.62;1.00;;;;;;;12.92;45.04;95894.68;1771739;79;21116;-80
2021/05/06 13:28:43;;;;;;;2.17;1.07;;;;;;;12.92;44.72;95887.36;1769285;79;21105;-82
2021/05/06 13:31:16;;;;;;;1.15;0.82;;;;;;;12.90;45.49;95896.70;1771899;79;21138;-83
2021/05/06 13:33:43;;;;;;;3.52;2.08;;;;;;;12.79;44.43;95877.78;1760103;79;21153;-82
2021/05/06 13:36:25;;;;;;;4.08;2.05;;;;;;;12.59;44.54;95893.51;1769862;79;22108;-83
2021/05/06 13:38:59;;;;;;;2.60;1.52;;;;;;;12.38;44.92;95905.51;1766158;79;21103;-81
2021/05/06 13:41:32;;;;;;;2.37;1.95;;;;;;;12.13;46.47;95913.16;1769036;79;21354;-81
2021/05/06 13:44:01;;;;;;;4.30;3.15;;;;;;;11.96;47.47;95915.37;1764127;79;21249;-79
2021/05/06 13:46:29;;;;;;;2.87;2.25;;;;;;;11.76;48.26;95904.64;1777134;79;21094;-79
2021/05/06 13:48:56;;;;;;;2.87;1.60;;;;;;;11.53;48.62;95907.61;1783433;79;21083;-79
2021/05/06 13:51:24;;;;;;;2.67;1.40;;;;;;;11.32;48.22;95907.30;1775024;79;21114;-80
2021/05/06 13:53:50;;;;;;;4.28;2.33;;;;;;;11.19;48.78;95906.77;1780017;79;21093;-83
2021/05/06 13:56:16;;;;;;;2.40;1.60;;;;;;;11.11;49.52;95922.06;1788142;79;21094;-83
2021/05/06 13:58:45;;;;;;;3.47;1.52;;;;;;;10.95;51.43;95935.41;1774582;79;21090;-83
2021/05/06 14:01:13;;;;;;;1.67;1.52;;;;;;;10.78;53.37;95928.94;1782538;79;21074;-83
2021/05/06 14:03:39;;;;;;;2.83;2.25;;;;;;;10.85;53.84;95905.06;1787719;79;21085;-83
2021/05/06 14:06:06;;;;;;;2.05;1.35;;;;;;;11.04;53.16;95902.22;1780261;79;21130;-82
2021/05/06 14:08:32;;;;;;;2.52;1.30;;;;;;;11.19;53.32;95898.16;1775112;79;22224;-79
2021/05/06 14:10:59;;;;;;;2.67;1.35;;;;;;;11.32;52.82;95891.19;1774098;79;21115;-81
2021/05/06 14:13:28;;;;;;;1.62;1.35;;;;;;;11.49;52.60;95875.20;1770321;79;21098;-81
2021/05/06 14:15:54;;;;;;;3.50;1.37;;;;;;;11.71;52.31;95873.52;1787148;79;21256;-79
2021/05/06 14:18:20;;;;;;;2.72;1.37;;;;;;;11.94;51.43;95871.81;1777386;79;21084;-79
2021/05/06 14:20:47;;;;;;;2.92;1.52;;;;;;;12.13;50.22;95861.56;1707151;82;21128;-83
2021/05/06 14:23:16;;;;;;;1.98;1.30;;;;;;;11.99;50.01;95862.89;1732695;80;21530;-83
2021/05/06 14:25:42;;;;;;;4.15;1.45;;;;;;;11.82;48.72;95860.41;1777599;79;21453;-79
2021/05/06 14:28:08;;;;;;;4.10;1.80;;;;;;;11.63;48.83;95858.09;1780595;79;21176;-79
2021/05/06 14:30:34;;;;;;;3.92;1.60;;;;;;;11.54;49.63;95861.08;1773341;79;21121;-79
2021/05/06 14:33:00;;;;;;;3.40;1.50;;;;;;;11.49;49.77;95860.39;1769843;79;21094;-79
2021/05/06 14:35:26;;;;;;;2.08;1.12;;;;;;;11.49;49.90;95860.39;1716475;82;21238;-79
2021/05/06 14:37:53;;;;;;;2.30;1.17;;;;;;;11.50;49.59;95857.28;1764215;79;21122;-80
2021/05/06 14:40:19;;;;;;;1.80;1.22;;;;;;;11.50;49.61;95848.17;1786131;79;21130;-78
2021/05/06 14:42:44;;;;;;;2.25;1.57;;;;;;;11.50;50.07;95850.28;1779788;79;21095;-79
2021/05/06 14:45:12;;;;;;;110.50;48.70;;;;;;;11.51;49.59;95840.17;1784456;79;21090;-80
2021/05/06 14:47:39;;;;;;;52.93;34.80;;;;;;;11.53;49.79;95839.47;1776653;79;21132;-79
2021/05/06 14:50:09;;;;;;;18.65;12.35;;;;;;;11.56;49.82;95836.48;1772830;79;21320;-79
2021/05/06 14:52:35;;;;;;;7.62;5.50;;;;;;;11.62;49.70;95833.07;1771372;79;21074;-79
2021/05/06 14:55:03;;;;;;;8.20;4.97;;;;;;;11.87;50.40;95833.77;1784690;79;21075;-80
2021/05/06 14:57:29;;;;;;;8.13;4.75;;;;;;;12.03;48.99;95823.72;1773891;80;21105;-81
2021/05/06 14:59:55;;;;;;;8.30;4.70;;;;;;;12.05;48.89;95818.33;1728225;82;21831;-81
2021/05/06 15:02:21;;;;;;;8.00;5.53;;;;;;;11.97;47.88;95816.73;1727016;80;21163;-81
2021/05/06 15:04:47;;;;;;;5.70;3.33;;;;;;;11.89;47.85;95823.98;1700347;82;21520;-81
2021/05/06 15:07:13;;;;;;;9.53;6.55;;;;;;;11.78;47.23;95820.64;1711163;82;21139;-83
2021/05/06 15:09:39;;;;;;;15.72;10.60;;;;;;;11.68;48.18;95827.55;1711245;82;21151;-79
2021/05/06 15:12:06;;;;;;;18.82;11.73;;;;;;;11.61;47.27;95826.27;1713306;82;21279;-79
2021/05/06 15:14:32;;;;;;;8.25;6.55;;;;;;;11.63;47.60;95819.56;1704123;82;21934;-80
2021/05/06 15:16:58;;;;;;;4.87;3.17;;;;;;;11.71;47.48;95808.92;1719914;81;21529;-81
2021/05/06 15:19:24;;;;;;;7.00;5.75;;;;;;;11.80;47.10;95792.64;1717482;82;21167;-81
2021/05/06 15:21:50;;;;;;;10.35;8.68;;;;;;;11.86;47.01;95787.91;1700387;82;21121;-81
2021/05/06 15:24:16;;;;;;;7.90;5.87;;;;;;;11.86;46.93;95780.90;1702735;82;21100;-80
2021/05/06 15:26:42;;;;;;;18.60;12.00;;;;;;;11.84;46.64;95779.00;1702056;82;21219;-83
2021/05/06 15:29:08;;;;;;;40.98;26.20;;;;;;;11.78;46.71;95786.31;1709972;83;21270;-79
2021/05/06 15:31:36;;;;;;;36.55;25.77;;;;;;;11.73;47.25;95794.73;1691714;82;21145;-80
2021/05/06 15:34:04;;;;;;;18.67;12.65;;;;;;;11.69;47.01;95791.41;1727795;80;21805;-81
2021/05/06 15:36:30;;;;;;;10.82;8.08;;;;;;;11.63;47.01;95787.83;1728167;80;22248;-80
2021/05/06 15:39:00;;;;;;;22.75;13.98;;;;;;;11.59;46.79;95771.53;1727872;80;21316;-81
2021/05/06 15:41:26;;;;;;;13.83;10.40;;;;;;;11.55;47.04;95767.71;1664784;83;21437;-81
2021/05/06 15:43:52;;;;;;;8.88;6.58;;;;;;;11.51;47.72;95759.52;1715009;81;21135;-81
2021/05/06 15:46:18;;;;;;;14.45;9.88;;;;;;;11.48;47.39;95759.92;1700261;81;21886;-81
2021/05/06 15:48:44;;;;;;;6.62;5.75;;;;;;;11.50;48.13;95760.52;1698662;81;21148;-81
2021/05/06 15:51:10;;;;;;;9.25;6.47;;;;;;;11.49;47.98;95756.83;1701491;81;21166;-81
2021/05/06 15:53:37;;;;;;;11.60;8.20;;;;;;;11.51;48.11;95761.32;1699063;81;21152;-81
2021/05/06 15:56:04;;;;;;;8.95;5.80;;;;;;;11.54;47.94;95755.70;1700163;81;21142;-81
2021/05/06 15:58:33;;;;;;;31.70;24.07;;;;;;;11.57;47.85;95752.73;1701062;83;21362;-81
2021/05/06 16:01:00;;;;;;;18.30;12.93;;;;;;;11.51;48.04;95753.02;1726688;80;21142;-83
2021/05/06 16:03:28;;;;;;;13.53;7.40;;;;;;;11.50;48.38;95742.81;1726745;80;21217;-83
2021/05/06 16:05:54;;;;;;;19.45;10.48;;;;;;;11.46;48.46;95749.43;1726751;80;21253;-79
2021/05/06 16:08:24;;;;;;;28.07;19.32;;;;;;;11.40;48.24;95749.75;1724111;80;21154;-83
2021/05/06 16:10:53;;;;;;;18.20;10.93;;;;;;;11.47;47.98;95753.63;1726039;80;21751;-79
2021/05/06 16:14:17;;;;;;;10.10;7.05;;;;;;;11.61;48.06;95751.31;1724759;81;21120;-80
2021/05/06 16:16:44;;;;;;;10.53;5.92;;;;;;;11.71;47.84;95727.77;1724875;80;22111;-79
2021/05/06 16:25:39;;;;;;;14.90;10.72;;;;;;;12.47;47.11;95743.22;1803394;77;21143;-80
2021/05/06 16:28:37;;;;;;;8.85;5.50;;;;;;;12.53;47.09;95728.07;1798557;77;21218;-80
2021/05/06 16:31:18;;;;;;;7.78;5.40;;;;;;;12.54;46.71;95730.46;1795827;77;21271;-81
2021/05/06 16:33:49;;;;;;;16.20;12.13;;;;;;;12.62;46.60;95732.00;1803341;77;21107;-83
2021/05/06 16:36:25;;;;;;;9.63;7.75;;;;;;;12.69;46.73;95727.57;1800211;77;21146;-83
2021/05/06 16:41:34;;;;;;;5.90;4.78;;;;;;;12.49;46.92;95740.69;1800356;77;21103;-80
2021/05/06 16:46:24;;;;;;;7.30;5.20;;;;;;;12.51;47.32;95736.06;1801227;77;21110;-80
2021/05/06 16:48:50;;;;;;;5.67;3.60;;;;;;;12.44;46.65;95709.27;1800290;77;21123;-81
2021/05/06 16:51:16;;;;;;;6.10;3.87;;;;;;;12.61;47.07;95730.41;1800062;77;21111;-80
2021/05/06 16:53:42;;;;;;;3.50;2.52;;;;;;;12.53;47.30;95730.67;1802025;77;21161;-80
2021/05/06 16:56:08;;;;;;;5.53;3.33;;;;;;;12.42;47.63;95726.12;1802271;77;21371;-83
2021/05/06 16:58:34;;;;;;;8.00;5.15;;;;;;;12.26;47.96;95731.30;1799612;77;21142;-83
2021/05/06 17:01:00;;;;;;;3.27;1.98;;;;;;;12.13;48.45;95737.36;1800854;77;21108;-80
2021/05/06 17:03:26;;;;;;;6.15;4.12;;;;;;;11.88;48.48;95728.16;1800673;77;21468;-80
2021/05/06 17:05:52;;;;;;;6.45;4.10;;;;;;;11.68;49.04;95732.56;1798633;77;21465;-80
2021/05/06 17:08:18;;;;;;;6.47;3.47;;;;;;;11.56;49.58;95740.22;1798925;77;21123;-80
2021/05/06 17:10:44;;;;;;;5.20;3.45;;;;;;;11.49;50.10;95732.11;1800266;77;21528;-83
2021/05/06 17:13:12;;;;;;;5.03;3.62;;;;;;;11.35;50.36;95733.42;1799406;77;21122;-82
2021/05/06 17:15:39;;;;;;;4.35;2.80;;;;;;;11.24;50.66;95732.75;1800153;77;21321;-80
2021/05/06 17:18:05;;;;;;;4.28;2.12;;;;;;;11.14;51.44;95733.65;1800155;77;22120;-83
2021/05/06 17:20:32;;;;;;;5.37;3.98;;;;;;;11.04;51.07;95728.84;1801358;77;21150;-82
2021/05/06 17:22:58;;;;;;;22.55;13.15;;;;;;;10.97;51.56;95733.75;1740604;80;21304;-80
2021/05/06 17:25:25;;;;;;;14.00;8.70;;;;;;;10.88;51.75;95732.33;1738685;80;21106;-83
2021/05/06 17:27:51;;;;;;;17.92;9.25;;;;;;;10.76;52.12;95734.24;1739166;80;21149;-81
2021/05/06 17:30:18;;;;;;;4.03;2.60;;;;;;;10.69;52.36;95739.11;1739215;80;21153;-83
2021/05/06 17:32:45;;;;;;;4.62;2.25;;;;;;;10.61;52.41;95733.62;1769338;78;21147;-80
2021/05/06 17:35:12;;;;;;;4.42;3.02;;;;;;;10.52;53.02;95736.88;1763675;78;21302;-83
2021/05/06 17:37:38;;;;;;;5.65;3.25;;;;;;;10.44;53.22;95739.67;1739448;80;21145;-80
2021/05/06 17:40:09;;;;;;;5.40;2.87;;;;;;;10.34;53.88;95739.73;1738193;80;21514;-79
2021/05/06 17:42:33;;;;;;;5.55;3.40;;;;;;;10.26;53.94;95745.12;1766809;78;21540;-80
2021/05/06 17:44:59;;;;;;;4.85;2.60;;;;;;;10.18;54.34;95740.85;1765123;78;21288;-78
2021/05/06 17:47:25;;;;;;;3.75;2.70;;;;;;;10.12;54.73;95742.94;1766942;78;21317;-79
2021/05/06 17:49:51;;;;;;;14.13;11.43;;;;;;;10.04;54.91;95749.08;1765886;78;21221;-79
2021/05/06 17:52:17;;;;;;;13.95;8.43;;;;;;;9.98;55.96;95736.09;1765482;78;21151;-79
2021/05/06 17:54:43;;;;;;;5.33;3.10;;;;;;;9.92;55.87;95740.23;1764249;78;21142;-84
2021/05/06 17:57:09;;;;;;;3.17;2.70;;;;;;;9.86;56.04;95737.92;1765988;78;21087;-83
2021/05/06 17:59:35;;;;;;;4.17;2.70;;;;;;;9.80;56.23;95749.08;1767940;78;21141;-83
2021/05/06 18:02:03;;;;;;;7.15;2.77;;;;;;;9.76;56.19;95745.74;1767301;78;21120;-83
2021/05/06 18:04:30;;;;;;;5.33;4.30;;;;;;;9.67;56.66;95723.56;1741290;79;21144;-81
2021/05/06 18:06:56;;;;;;;6.78;4.65;;;;;;;9.66;56.50;95738.33;1738651;79;21311;-80
2021/05/06 18:09:28;;;;;;;5.60;4.05;;;;;;;9.59;57.06;95743.46;1741065;79;21393;-79
2021/05/06 18:14:28;;;;;;;4.60;3.42;;;;;;;9.53;57.28;95736.45;1741409;79;21104;-83
2021/05/06 18:16:54;;;;;;;5.20;2.67;;;;;;;9.50;57.30;95741.22;1739801;80;21173;-83
2021/05/06 18:19:21;;;;;;;4.55;3.52;;;;;;;9.49;57.48;95733.14;1743873;80;21102;-80
2021/05/06 18:21:47;;;;;;;6.80;4.05;;;;;;;9.46;57.27;95734.83;1788119;79;21316;-80
2021/05/06 18:24:13;;;;;;;3.47;2.72;;;;;;;9.45;57.16;95735.32;1788831;79;21240;-84
2021/05/06 18:26:39;;;;;;;4.15;3.25;;;;;;;9.44;57.46;95732.42;1766751;79;21078;-83
2021/05/06 18:29:06;;;;;;;5.95;3.05;;;;;;;9.43;57.34;95729.50;1751870;80;21074;-83
2021/05/06 18:31:32;;;;;;;12.73;6.95;;;;;;;9.43;57.22;95730.80;1780744;78;21127;-80
2021/05/06 18:34:02;;;;;;;10.65;5.80;;;;;;;9.45;57.28;95730.63;1766619;80;22058;-79
2021/05/06 18:36:28;;;;;;;36.88;16.62;;;;;;;9.45;57.12;95728.04;1781023;80;21106;-83
2021/05/06 18:38:54;;;;;;;28.40;13.72;;;;;;;9.46;57.23;95722.66;1773409;80;21132;-79
2021/05/06 18:41:20;;;;;;;50.48;18.60;;;;;;;9.46;57.03;95725.25;1777449;80;21127;-79
2021/05/06 18:43:47;;;;;;;20.40;11.12;;;;;;;9.46;56.88;95735.63;1774386;79;21106;-79
2021/05/06 18:46:14;;;;;;;11.48;8.43;;;;;;;9.44;56.86;95727.23;1776726;80;21093;-79
2021/05/06 18:48:40;;;;;;;8.85;6.55;;;;;;;9.44;56.77;95732.92;1771982;79;21094;-80
2021/05/06 18:51:06;;;;;;;16.52;11.60;;;;;;;9.43;57.00;95733.39;1773700;80;21321;-79
2021/05/06 18:53:32;;;;;;;12.85;10.03;;;;;;;9.43;57.00;95733.39;1766373;80;21102;-81
2021/05/06 18:55:58;;;;;;;23.35;18.00;;;;;;;9.40;56.48;95736.86;1762672;79;21334;-79
2021/05/06 18:58:24;;;;;;;21.90;19.32;;;;;;;9.41;56.64;95745.74;1771552;79;21152;-80
2021/05/06 19:00:53;;;;;;;9.03;7.83;;;;;;;9.40;56.73;95740.25;1771397;79;21099;-81
2021/05/06 19:03:18;;;;;;;4.90;4.08;;;;;;;9.40;56.58;95738.95;1778273;79;21149;-81
2021/05/06 19:05:45;;;;;;;4.08;2.98;;;;;;;9.42;56.53;95732.28;1756822;80;21066;-83
2021/05/06 19:08:11;;;;;;;6.00;3.25;;;;;;;9.43;56.55;95737.77;1755276;80;21130;-83